createdAt,value
2018-08-30T00:00:01.364Z,16.8
2018-08-30T00:01:01.308Z,16.9
2018-08-30T00:02:01.237Z,16.9
2018-08-30T00:03:01.141Z,16.9
2018-08-30T00:04:01.055Z,16.9
2018-08-30T00:05:01.000Z,17
2018-08-30T00:06:01.347Z,17
2018-08-30T00:07:04.262Z,16.9
2018-08-30T00:08:04.166Z,17
2018-08-30T00:09:04.083Z,17
2018-08-30T00:10:04.021Z,17
2018-08-30T00:11:03.936Z,16.9
2018-08-30T00:12:03.843Z,16.8
2018-08-30T00:13:03.749Z,16.9
2018-08-30T00:14:03.886Z,16.9
2018-08-30T00:15:03.781Z,17
2018-08-30T00:16:04.142Z,17
2018-08-30T00:17:04.058Z,17
2018-08-30T00:18:03.980Z,16.9
2018-08-30T00:19:03.891Z,16.9
2018-08-30T00:20:03.795Z,16.9
2018-08-30T00:21:03.724Z,16.8
2018-08-30T00:22:03.639Z,16.9
2018-08-30T00:23:03.561Z,17
2018-08-30T00:24:03.474Z,16.8
2018-08-30T00:25:03.385Z,16.8
2018-08-30T00:26:03.746Z,16.7
2018-08-30T00:27:03.693Z,16.6
2018-08-30T00:28:03.601Z,16.6
2018-08-30T00:29:03.508Z,16.6
2018-08-30T00:30:03.437Z,16.5
2018-08-30T00:31:03.345Z,16.6
2018-08-30T00:32:03.300Z,16.6
2018-08-30T00:33:03.319Z,16.5
2018-08-30T00:34:03.236Z,16.4
2018-08-30T00:35:03.134Z,16.4
2018-08-30T00:36:03.479Z,16.4
2018-08-30T00:37:03.388Z,16.5
2018-08-30T00:38:03.288Z,16.6
2018-08-30T00:39:03.227Z,16.5
2018-08-30T00:40:03.129Z,16.6
2018-08-30T00:41:03.037Z,16.6
2018-08-30T00:42:02.943Z,16.5
2018-08-30T00:43:02.843Z,16.5
2018-08-30T00:44:02.748Z,16.6
2018-08-30T00:45:02.914Z,16.7
2018-08-30T00:46:03.243Z,16.7
2018-08-30T00:47:03.150Z,16.7
2018-08-30T00:48:03.063Z,16.6
2018-08-30T00:49:02.993Z,16.6
2018-08-30T00:50:02.921Z,16.5
2018-08-30T00:51:02.850Z,16.5
2018-08-30T00:52:02.757Z,16.5
2018-08-30T00:53:02.687Z,16.5
2018-08-30T00:54:02.595Z,16.4
2018-08-30T00:55:02.495Z,16.4
2018-08-30T00:56:03.212Z,16.5
2018-08-30T00:57:03.145Z,16.5
2018-08-30T00:58:03.082Z,16.5
2018-08-30T00:59:02.997Z,16.4
2018-08-30T01:00:02.904Z,16.4
2018-08-30T01:01:02.818Z,16.4
2018-08-30T01:02:02.755Z,16.4
2018-08-30T01:03:02.694Z,16.3
2018-08-30T01:04:02.605Z,16.4
2018-08-30T01:05:02.520Z,16.3
2018-08-30T01:06:02.854Z,16.2
2018-08-30T01:07:02.764Z,16.4
2018-08-30T01:08:03.685Z,16.4
2018-08-30T01:09:03.593Z,16.5
2018-08-30T01:10:03.501Z,16.5
2018-08-30T01:11:03.457Z,16.5
2018-08-30T01:12:03.367Z,16.4
2018-08-30T01:13:03.297Z,16.4
2018-08-30T01:14:03.231Z,16.4
2018-08-30T01:15:03.158Z,16.3
2018-08-30T01:16:03.553Z,16.3
2018-08-30T01:17:03.457Z,16.2
2018-08-30T01:18:03.356Z,16.2
2018-08-30T01:19:03.752Z,16.1
2018-08-30T01:20:03.680Z,16.2
2018-08-30T01:21:03.584Z,16.2
2018-08-30T01:22:03.486Z,16.2
2018-08-30T01:23:03.397Z,16.1
2018-08-30T01:24:03.320Z,16.1
2018-08-30T01:25:04.252Z,16.1
2018-08-30T01:26:04.603Z,16.1
2018-08-30T01:27:04.507Z,16.1
2018-08-30T01:28:04.432Z,16.1
2018-08-30T01:29:04.340Z,16.1
2018-08-30T01:30:04.287Z,16.1
2018-08-30T01:31:04.196Z,16.2
2018-08-30T01:32:04.111Z,16.2
2018-08-30T01:33:04.026Z,16.3
2018-08-30T01:34:03.933Z,16.4
2018-08-30T01:35:03.828Z,16.3
2018-08-30T01:36:04.225Z,16.3
2018-08-30T01:37:04.131Z,16.3
2018-08-30T01:38:04.052Z,16.3
2018-08-30T01:39:03.958Z,16.3
2018-08-30T01:40:03.880Z,16.3
2018-08-30T01:41:03.813Z,16.3
2018-08-30T01:42:03.744Z,16.3
2018-08-30T01:43:03.655Z,16.4
2018-08-30T01:44:03.565Z,16.3
2018-08-30T01:45:03.489Z,16.3
2018-08-30T01:46:03.851Z,16.3
2018-08-30T01:47:03.777Z,16.4
2018-08-30T01:48:03.692Z,16.4
2018-08-30T01:49:03.643Z,16.4
2018-08-30T01:50:03.551Z,16.4
2018-08-30T01:51:03.478Z,16.4
2018-08-30T01:52:03.405Z,16.3
2018-08-30T01:53:03.304Z,16.3
2018-08-30T01:54:03.214Z,16.3
2018-08-30T01:55:03.120Z,16.4
2018-08-30T01:56:03.488Z,16.3
2018-08-30T01:57:03.391Z,16.3
2018-08-30T01:58:03.359Z,16.4
2018-08-30T01:59:03.300Z,16.3
2018-08-30T02:00:03.204Z,16.3
2018-08-30T02:01:03.126Z,16.3
2018-08-30T02:02:03.061Z,16.3
2018-08-30T02:03:02.979Z,16.3
2018-08-30T02:04:02.930Z,16.3
2018-08-30T02:05:02.857Z,16.4
2018-08-30T02:06:03.252Z,16.4
2018-08-30T02:07:03.240Z,16.5
2018-08-30T02:08:03.138Z,16.4
2018-08-30T02:09:03.105Z,16.5
2018-08-30T02:10:03.077Z,16.5
2018-08-30T02:11:02.993Z,16.4
2018-08-30T02:12:02.887Z,16.3
2018-08-30T02:13:02.793Z,16.3
2018-08-30T02:14:02.696Z,16.3
2018-08-30T02:15:02.642Z,16.4
2018-08-30T02:16:02.999Z,16.3
2018-08-30T02:17:02.896Z,16.3
2018-08-30T02:18:02.804Z,16.3
2018-08-30T02:19:02.704Z,16.2
2018-08-30T02:20:02.840Z,16.2
2018-08-30T02:21:02.774Z,16.2
2018-08-30T02:22:02.684Z,16.1
2018-08-30T02:23:02.603Z,16.1
2018-08-30T02:24:02.517Z,16.1
2018-08-30T02:25:02.440Z,16.1
2018-08-30T02:26:02.817Z,16.2
2018-08-30T02:27:02.952Z,16.2
2018-08-30T02:28:02.855Z,16.2
2018-08-30T02:29:02.755Z,16.2
2018-08-30T02:30:02.673Z,16.2
2018-08-30T02:31:02.627Z,16.3
2018-08-30T02:32:02.572Z,16.3
2018-08-30T02:33:02.495Z,16.3
2018-08-30T02:34:02.433Z,16.3
2018-08-30T02:35:02.377Z,16.3
2018-08-30T02:36:02.757Z,16.3
2018-08-30T02:37:02.701Z,16.3
2018-08-30T02:38:02.621Z,16.2
2018-08-30T02:39:02.525Z,16.2
2018-08-30T02:40:02.437Z,16.3
2018-08-30T02:41:02.379Z,16.3
2018-08-30T02:42:02.295Z,16.3
2018-08-30T02:43:02.244Z,16.3
2018-08-30T02:44:02.176Z,16.2
2018-08-30T02:45:02.103Z,16.2
2018-08-30T02:46:02.433Z,16.2
2018-08-30T02:47:02.349Z,16.2
2018-08-30T02:48:02.269Z,16.2
2018-08-30T02:49:02.481Z,16.2
2018-08-30T02:50:02.897Z,16.3
2018-08-30T02:51:02.815Z,16.3
2018-08-30T02:52:02.724Z,16.3
2018-08-30T02:53:02.638Z,16.4
2018-08-30T02:54:02.806Z,16.4
2018-08-30T02:55:02.707Z,16.4
2018-08-30T02:56:03.083Z,16.4
2018-08-30T02:57:02.982Z,16.4
2018-08-30T02:58:02.874Z,16.4
2018-08-30T02:59:02.784Z,16.5
2018-08-30T03:00:02.732Z,16.4
2018-08-30T03:01:02.650Z,16.4
2018-08-30T03:02:02.616Z,16.4
2018-08-30T03:03:02.546Z,16.5
2018-08-30T03:04:02.475Z,16.5
2018-08-30T03:05:02.385Z,16.4
2018-08-30T03:06:02.783Z,16.5
2018-08-30T03:07:02.684Z,16.5
2018-08-30T03:08:02.590Z,16.5
2018-08-30T03:09:02.484Z,16.5
2018-08-30T03:10:02.400Z,16.4
2018-08-30T03:11:02.392Z,16.4
2018-08-30T03:12:02.613Z,16.5
2018-08-30T03:13:02.505Z,16.5
2018-08-30T03:14:02.399Z,16.4
2018-08-30T03:15:02.315Z,16.3
2018-08-30T03:16:02.717Z,16.3
2018-08-30T03:17:02.633Z,16.3
2018-08-30T03:18:02.541Z,16.3
2018-08-30T03:19:06.709Z,16.3
2018-08-30T03:20:06.628Z,16.3
2018-08-30T03:21:06.567Z,16.3
2018-08-30T03:22:06.478Z,16.3
2018-08-30T03:23:06.383Z,16.3
2018-08-30T03:24:06.285Z,16.3
2018-08-30T03:25:06.191Z,16.3
2018-08-30T03:26:06.541Z,16.3
2018-08-30T03:27:06.483Z,16.3
2018-08-30T03:28:06.395Z,16.2
2018-08-30T03:29:06.292Z,16.2
2018-08-30T03:30:06.458Z,16.2
2018-08-30T03:31:07.038Z,16.2
2018-08-30T03:32:07.641Z,16.2
2018-08-30T03:33:07.564Z,16.2
2018-08-30T03:34:07.475Z,16.2
2018-08-30T03:35:07.395Z,16.2
2018-08-30T03:36:07.736Z,16.2
2018-08-30T03:37:07.681Z,16.1
2018-08-30T03:38:07.607Z,16.2
2018-08-30T03:39:07.528Z,16.1
2018-08-30T03:40:07.459Z,16.2
2018-08-30T03:41:07.379Z,16.3
2018-08-30T03:42:07.297Z,16.2
2018-08-30T03:43:07.246Z,16.2
2018-08-30T03:44:07.287Z,16.2
2018-08-30T03:45:07.232Z,16.2
2018-08-30T03:46:07.612Z,16.1
2018-08-30T03:47:07.784Z,16.2
2018-08-30T03:48:08.355Z,16.2
2018-08-30T03:49:08.282Z,16.2
2018-08-30T03:50:08.185Z,16.2
2018-08-30T03:51:08.103Z,16.2
2018-08-30T03:52:08.008Z,16.2
2018-08-30T03:53:07.934Z,16.2
2018-08-30T03:54:07.866Z,16.2
2018-08-30T03:55:07.973Z,16.2
2018-08-30T03:56:08.660Z,16.2
2018-08-30T03:57:08.610Z,16.2
2018-08-30T03:58:08.538Z,16.2
2018-08-30T03:59:08.438Z,16.2
2018-08-30T04:00:08.368Z,16.2
2018-08-30T04:01:08.297Z,16.2
2018-08-30T04:02:08.199Z,16.2
2018-08-30T04:03:08.109Z,16.2
2018-08-30T04:04:08.128Z,16.2
2018-08-30T04:05:08.341Z,16.2
2018-08-30T04:06:08.727Z,16.2
2018-08-30T04:07:08.636Z,16.2
2018-08-30T04:08:08.563Z,16.2
2018-08-30T04:09:08.486Z,16.2
2018-08-30T04:10:08.416Z,16.2
2018-08-30T04:11:08.368Z,16.2
2018-08-30T04:12:08.280Z,16.2
2018-08-30T04:13:08.212Z,16.2
2018-08-30T04:14:08.116Z,16.2
2018-08-30T04:15:08.042Z,16.3
2018-08-30T04:16:08.375Z,16.3
2018-08-30T04:17:08.312Z,16.3
2018-08-30T04:18:08.239Z,16.4
2018-08-30T04:19:08.146Z,16.4
2018-08-30T04:20:08.070Z,16.4
2018-08-30T04:21:07.985Z,16.4
2018-08-30T04:22:08.238Z,16.4
2018-08-30T04:23:08.732Z,16.4
2018-08-30T04:24:08.656Z,16.4
2018-08-30T04:25:08.590Z,16.4
2018-08-30T04:26:08.955Z,16.5
2018-08-30T04:27:09.176Z,16.5
2018-08-30T04:28:09.568Z,16.4
2018-08-30T04:29:09.490Z,16.4
2018-08-30T04:30:09.420Z,16.4
2018-08-30T04:31:09.393Z,16.4
2018-08-30T04:32:09.297Z,16.4
2018-08-30T04:33:09.204Z,16.4
2018-08-30T04:34:09.356Z,16.4
2018-08-30T04:35:09.264Z,16.3
2018-08-30T04:36:09.612Z,16.3
2018-08-30T04:37:09.514Z,16.3
2018-08-30T04:38:09.418Z,16.3
2018-08-30T04:39:09.332Z,16.2
2018-08-30T04:40:09.276Z,16.3
2018-08-30T04:41:11.935Z,16.3
2018-08-30T04:42:12.028Z,16.3
2018-08-30T04:43:12.146Z,16.4
2018-08-30T04:44:12.082Z,16.4
2018-08-30T04:45:12.031Z,16.5
2018-08-30T04:46:12.377Z,16.5
2018-08-30T04:47:12.296Z,16.5
2018-08-30T04:48:12.229Z,16.5
2018-08-30T04:49:15.029Z,16.5
2018-08-30T04:50:16.422Z,16.4
2018-08-30T04:51:16.838Z,16.4
2018-08-30T04:52:16.748Z,16.4
2018-08-30T04:53:16.978Z,16.4
2018-08-30T04:54:16.898Z,16.4
2018-08-30T04:55:16.883Z,16.4
2018-08-30T04:56:17.225Z,16.4
2018-08-30T04:57:17.184Z,16.4
2018-08-30T04:58:17.080Z,16.3
2018-08-30T04:59:16.995Z,16.4
2018-08-30T05:00:16.899Z,16.3
2018-08-30T05:01:16.834Z,16.3
2018-08-30T05:02:16.749Z,16.3
2018-08-30T05:03:16.663Z,16.3
2018-08-30T05:04:16.582Z,16.3
2018-08-30T05:05:16.486Z,16.2
2018-08-30T05:06:17.513Z,16.2
2018-08-30T05:07:17.436Z,16.2
2018-08-30T05:08:17.334Z,16.1
2018-08-30T05:09:17.228Z,16
2018-08-30T05:10:17.160Z,16
2018-08-30T05:11:17.068Z,16
2018-08-30T05:12:16.978Z,16
2018-08-30T05:13:16.920Z,16.1
2018-08-30T05:14:16.830Z,16
2018-08-30T05:15:16.747Z,16
2018-08-30T05:16:17.080Z,15.9
2018-08-30T05:17:16.991Z,15.9
2018-08-30T05:18:16.912Z,15.9
2018-08-30T05:19:16.832Z,15.9
2018-08-30T05:20:16.743Z,16
2018-08-30T05:21:16.871Z,15.9
2018-08-30T05:22:16.788Z,16
2018-08-30T05:23:16.699Z,15.9
2018-08-30T05:24:16.600Z,16
2018-08-30T05:25:17.452Z,15.9
2018-08-30T05:26:22.666Z,15.9
2018-08-30T05:27:22.581Z,15.9
2018-08-30T05:28:22.481Z,16
2018-08-30T05:29:22.425Z,16
2018-08-30T05:30:22.570Z,16
2018-08-30T05:31:25.294Z,16
2018-08-30T05:32:25.208Z,16
2018-08-30T05:33:25.114Z,16.1
2018-08-30T05:34:25.273Z,16.1
2018-08-30T05:35:25.192Z,16.1
2018-08-30T05:36:25.534Z,16.2
2018-08-30T05:37:25.430Z,16.2
2018-08-30T05:38:25.338Z,16.1
2018-08-30T05:39:25.248Z,16.2
2018-08-30T05:40:25.177Z,16.2
2018-08-30T05:41:25.122Z,16.3
2018-08-30T05:42:25.011Z,16.2
2018-08-30T05:43:24.916Z,16.2
2018-08-30T05:44:24.817Z,16.2
2018-08-30T05:45:24.708Z,16.2
2018-08-30T05:46:25.109Z,16.2
2018-08-30T05:47:25.037Z,16.2
2018-08-30T05:48:24.939Z,16.1
2018-08-30T05:49:24.832Z,16.2
2018-08-30T05:50:24.733Z,16.2
2018-08-30T05:51:24.649Z,16.1
2018-08-30T05:52:24.548Z,16.2
2018-08-30T05:53:24.519Z,16.2
2018-08-30T05:54:24.424Z,16.2
2018-08-30T05:55:24.322Z,16.2
2018-08-30T05:56:24.666Z,16.2
2018-08-30T05:57:24.562Z,16.2
2018-08-30T05:58:24.455Z,16.2
2018-08-30T05:59:24.379Z,16.2
2018-08-30T06:00:24.326Z,16.2
2018-08-30T06:01:25.241Z,16.2
2018-08-30T06:02:27.887Z,16.2
2018-08-30T06:03:28.010Z,16.2
2018-08-30T06:04:27.937Z,16.2
2018-08-30T06:05:27.829Z,16.2
2018-08-30T06:06:28.170Z,16.1
2018-08-30T06:07:28.434Z,16.1
2018-08-30T06:08:28.730Z,16.1
2018-08-30T06:09:29.053Z,16.1
2018-08-30T06:10:28.956Z,16.2
2018-08-30T06:11:29.131Z,16.1
2018-08-30T06:12:30.048Z,16.1
2018-08-30T06:13:29.966Z,16
2018-08-30T06:14:29.863Z,16
2018-08-30T06:15:29.803Z,16
2018-08-30T06:16:30.148Z,16
2018-08-30T06:17:30.069Z,16.1
2018-08-30T06:18:29.956Z,16
2018-08-30T06:19:29.858Z,16
2018-08-30T06:20:29.771Z,16.1
2018-08-30T06:21:29.673Z,16.1
2018-08-30T06:22:29.583Z,16.1
2018-08-30T06:23:29.484Z,16.1
2018-08-30T06:24:29.382Z,16
2018-08-30T06:25:29.285Z,16.1
2018-08-30T06:26:32.593Z,16.1
2018-08-30T06:27:32.496Z,16.1
2018-08-30T06:28:32.402Z,16.1
2018-08-30T06:29:32.334Z,16.1
2018-08-30T06:30:32.242Z,16.1
2018-08-30T06:31:32.176Z,16.2
2018-08-30T06:32:32.088Z,16.1
2018-08-30T06:33:31.983Z,16.2
2018-08-30T06:34:31.932Z,16.2
2018-08-30T06:35:32.974Z,16.2
2018-08-30T06:36:33.573Z,16.2
2018-08-30T06:37:33.510Z,16.2
2018-08-30T06:38:33.555Z,16.2
2018-08-30T06:39:33.666Z,16.2
2018-08-30T06:40:33.600Z,16.2
2018-08-30T06:41:33.523Z,16.2
2018-08-30T06:42:36.255Z,16.2
2018-08-30T06:43:36.161Z,16.2
2018-08-30T06:44:36.063Z,16.2
2018-08-30T06:45:35.990Z,16.3
2018-08-30T06:46:36.350Z,16.2
2018-08-30T06:47:36.288Z,16.2
2018-08-30T06:48:36.723Z,16.2
2018-08-30T06:49:37.128Z,16.2
2018-08-30T06:50:39.773Z,16.2
2018-08-30T06:51:39.672Z,16.2
2018-08-30T06:52:39.596Z,16.1
2018-08-30T06:53:39.506Z,16
2018-08-30T06:54:39.412Z,15.9
2018-08-30T06:55:39.329Z,15.9
2018-08-30T06:56:39.726Z,15.8
2018-08-30T06:57:39.629Z,15.9
2018-08-30T06:58:39.790Z,15.9
2018-08-30T06:59:39.722Z,16
2018-08-30T07:00:39.639Z,16
2018-08-30T07:01:39.551Z,16
2018-08-30T07:02:39.679Z,15.9
2018-08-30T07:03:39.588Z,16
2018-08-30T07:04:39.516Z,16
2018-08-30T07:05:39.419Z,16.1
2018-08-30T07:06:39.985Z,16
2018-08-30T07:07:39.899Z,16
2018-08-30T07:08:39.811Z,16
2018-08-30T07:09:39.952Z,16
2018-08-30T07:10:39.885Z,16.1
2018-08-30T07:11:39.795Z,16.2
2018-08-30T07:12:39.711Z,16.2
2018-08-30T07:13:40.619Z,16.1
2018-08-30T07:14:41.020Z,16.1
2018-08-30T07:15:41.549Z,16.2
2018-08-30T07:16:42.140Z,16.2
2018-08-30T07:17:42.039Z,16.2
2018-08-30T07:18:41.978Z,16.2
2018-08-30T07:19:41.901Z,16.1
2018-08-30T07:20:42.516Z,16.2
2018-08-30T07:21:42.418Z,16.1
2018-08-30T07:22:42.325Z,16.1
2018-08-30T07:23:42.231Z,16
2018-08-30T07:24:42.136Z,16
2018-08-30T07:25:42.043Z,16
2018-08-30T07:26:46.403Z,16
2018-08-30T07:27:46.314Z,15.9
2018-08-30T07:28:46.452Z,15.8
2018-08-30T07:29:47.590Z,15.9
2018-08-30T07:30:47.519Z,15.9
2018-08-30T07:31:47.666Z,15.8
2018-08-30T07:32:47.566Z,15.7
2018-08-30T07:33:47.481Z,15.8
2018-08-30T07:34:48.121Z,15.8
2018-08-30T07:35:48.907Z,15.8
2018-08-30T07:36:49.523Z,15.7
2018-08-30T07:37:49.421Z,15.8
2018-08-30T07:38:49.549Z,15.7
2018-08-30T07:39:49.446Z,15.7
2018-08-30T07:40:49.336Z,15.7
2018-08-30T07:41:49.254Z,15.7
2018-08-30T07:42:49.197Z,15.7
2018-08-30T07:43:49.109Z,15.7
2018-08-30T07:44:49.038Z,15.7
2018-08-30T07:45:49.941Z,15.6
2018-08-30T07:46:51.355Z,15.6
2018-08-30T07:47:51.260Z,15.6
2018-08-30T07:48:54.360Z,15.6
2018-08-30T07:49:54.261Z,15.7
2018-08-30T07:50:54.265Z,15.7
2018-08-30T07:51:54.394Z,15.8
2018-08-30T07:52:54.306Z,15.7
2018-08-30T07:53:54.222Z,15.7
2018-08-30T07:54:57.128Z,15.7
2018-08-30T07:55:57.035Z,15.8
2018-08-30T07:56:57.417Z,15.8
2018-08-30T07:57:57.329Z,15.8
2018-08-30T07:58:57.470Z,15.9
2018-08-30T07:59:57.816Z,15.9
2018-08-30T08:00:58.102Z,15.8
2018-08-30T08:01:58.815Z,15.8
2018-08-30T08:02:58.709Z,15.8
2018-08-30T08:03:58.606Z,15.8
2018-08-30T08:04:58.512Z,15.8
2018-08-30T08:05:58.872Z,15.7
2018-08-30T08:07:03.796Z,15.6
2018-08-30T08:08:03.890Z,15.6
2018-08-30T08:09:03.795Z,15.6
2018-08-30T08:10:03.691Z,15.6
2018-08-30T08:11:03.593Z,15.7
2018-08-30T08:12:03.930Z,15.6
2018-08-30T08:13:04.492Z,15.6
2018-08-30T08:14:04.406Z,15.7
2018-08-30T08:15:04.302Z,15.6
2018-08-30T08:16:04.238Z,15.6
2018-08-30T08:17:04.844Z,15.6
2018-08-30T08:18:04.767Z,15.6
2018-08-30T08:19:05.034Z,15.6
2018-08-30T08:20:05.325Z,15.6
2018-08-30T08:21:05.229Z,15.6
2018-08-30T08:22:05.148Z,15.6
2018-08-30T08:23:05.050Z,15.5
2018-08-30T08:24:04.981Z,15.5
2018-08-30T08:25:04.887Z,15.6
2018-08-30T08:26:04.802Z,15.6
2018-08-30T08:27:05.431Z,15.5
2018-08-30T08:28:05.357Z,15.5
2018-08-30T08:29:08.552Z,15.5
2018-08-30T08:30:08.459Z,15.5
2018-08-30T08:31:08.619Z,15.6
2018-08-30T08:32:08.707Z,15.6
2018-08-30T08:33:12.284Z,15.6
2018-08-30T08:34:12.211Z,15.6
2018-08-30T08:35:12.124Z,15.6
2018-08-30T08:36:12.031Z,15.7
2018-08-30T08:37:12.649Z,15.6
2018-08-30T08:38:12.547Z,15.7
2018-08-30T08:39:12.457Z,15.7
2018-08-30T08:40:12.375Z,15.7
2018-08-30T08:41:12.521Z,15.7
2018-08-30T08:42:12.431Z,15.6
2018-08-30T08:43:12.319Z,15.6
2018-08-30T08:44:12.217Z,15.6
2018-08-30T08:45:12.102Z,15.6
2018-08-30T08:46:12.034Z,15.6
2018-08-30T08:47:12.613Z,15.6
2018-08-30T08:48:12.740Z,15.6
2018-08-30T08:49:12.651Z,15.6
2018-08-30T08:50:12.564Z,15.6
2018-08-30T08:51:12.786Z,15.5
2018-08-30T08:52:13.023Z,15.5
2018-08-30T08:53:15.515Z,15.5
2018-08-30T08:54:15.436Z,15.6
2018-08-30T08:55:15.336Z,15.6
2018-08-30T08:56:19.660Z,15.7
2018-08-30T08:57:20.076Z,15.6
2018-08-30T08:58:19.965Z,15.6
2018-08-30T08:59:20.261Z,15.5
2018-08-30T09:00:20.646Z,15.7
2018-08-30T09:01:20.751Z,15.6
2018-08-30T09:02:21.060Z,15.6
2018-08-30T09:03:20.997Z,15.7
2018-08-30T09:04:20.951Z,15.8
2018-08-30T09:05:20.846Z,15.7
2018-08-30T09:06:20.758Z,15.7
2018-08-30T09:07:21.425Z,15.7
2018-08-30T09:08:21.505Z,15.8
2018-08-30T09:09:21.406Z,15.7
2018-08-30T09:10:21.294Z,15.6
2018-08-30T09:11:22.190Z,15.7
2018-08-30T09:12:22.116Z,15.6
2018-08-30T09:13:22.029Z,15.6
2018-08-30T09:14:22.039Z,15.6
2018-08-30T09:15:22.296Z,15.6
2018-08-30T09:16:22.211Z,15.6
2018-08-30T09:17:22.569Z,15.6
2018-08-30T09:18:22.681Z,15.5
2018-08-30T09:19:22.931Z,15.5
2018-08-30T09:20:22.849Z,15.5
2018-08-30T09:21:22.767Z,15.4
2018-08-30T09:22:22.678Z,15.4
2018-08-30T09:23:22.610Z,15.4
2018-08-30T09:24:22.510Z,15.4
2018-08-30T09:25:22.410Z,15.5
2018-08-30T09:26:22.316Z,15.5
2018-08-30T09:27:23.242Z,15.4
2018-08-30T09:28:23.172Z,15.6
2018-08-30T09:29:23.104Z,15.6
2018-08-30T09:30:23.012Z,15.6
2018-08-30T09:31:22.949Z,15.6
2018-08-30T09:32:22.862Z,15.6
2018-08-30T09:33:22.764Z,15.6
2018-08-30T09:34:22.678Z,15.6
2018-08-30T09:35:22.586Z,15.7
2018-08-30T09:36:22.507Z,15.6
2018-08-30T09:37:22.844Z,15.7
2018-08-30T09:38:22.747Z,15.7
2018-08-30T09:39:22.651Z,15.8
2018-08-30T09:40:22.575Z,15.7
2018-08-30T09:41:22.493Z,15.6
2018-08-30T09:42:22.391Z,15.6
2018-08-30T09:43:22.302Z,15.6
2018-08-30T09:44:22.204Z,15.6
2018-08-30T09:45:22.108Z,15.6
2018-08-30T09:46:22.036Z,15.6
2018-08-30T09:47:22.378Z,15.6
2018-08-30T09:48:22.294Z,15.6
2018-08-30T09:49:22.396Z,15.6
2018-08-30T09:50:22.676Z,15.6
2018-08-30T09:51:22.587Z,15.6
2018-08-30T09:52:22.481Z,15.5
2018-08-30T09:53:22.395Z,15.6
2018-08-30T09:54:22.307Z,15.6
2018-08-30T09:55:22.213Z,15.6
2018-08-30T09:56:22.116Z,15.6
2018-08-30T09:57:24.178Z,15.5
2018-08-30T09:58:24.840Z,15.6
2018-08-30T09:59:24.739Z,15.6
2018-08-30T10:00:24.660Z,15.6
2018-08-30T10:01:24.577Z,15.7
2018-08-30T10:02:27.156Z,15.7
2018-08-30T10:03:27.070Z,15.6
2018-08-30T10:04:26.980Z,15.7
2018-08-30T10:05:26.882Z,15.7
2018-08-30T10:06:26.796Z,15.7
2018-08-30T10:07:27.143Z,15.7
2018-08-30T10:08:29.830Z,15.7
2018-08-30T10:09:32.526Z,15.7
2018-08-30T10:10:32.434Z,15.7
2018-08-30T10:11:32.394Z,15.7
2018-08-30T10:12:32.309Z,15.8
2018-08-30T10:13:32.247Z,15.8
2018-08-30T10:14:33.815Z,15.8
2018-08-30T10:15:33.938Z,15.9
2018-08-30T10:16:33.845Z,15.9
2018-08-30T10:17:34.201Z,15.9
2018-08-30T10:18:34.139Z,16
2018-08-30T10:19:35.046Z,16
2018-08-30T10:20:34.947Z,16.1
2018-08-30T10:21:35.219Z,16.1
2018-08-30T10:22:35.699Z,16.1
2018-08-30T10:23:35.864Z,16.1
2018-08-30T10:24:35.761Z,16.1
2018-08-30T10:25:35.703Z,16.1
2018-08-30T10:26:35.618Z,16.2
2018-08-30T10:27:35.992Z,16.1
2018-08-30T10:28:35.889Z,16.1
2018-08-30T10:29:35.807Z,16.1
2018-08-30T10:30:35.732Z,16.1
2018-08-30T10:31:36.276Z,16.2
2018-08-30T10:32:36.796Z,16.2
2018-08-30T10:33:36.708Z,16.2
2018-08-30T10:34:36.647Z,16.2
2018-08-30T10:35:36.588Z,16.2
2018-08-30T10:36:36.483Z,16.3
2018-08-30T10:37:41.223Z,16.3
2018-08-30T10:38:41.137Z,16.3
2018-08-30T10:39:41.066Z,16.3
2018-08-30T10:40:43.587Z,16.3
2018-08-30T10:41:45.382Z,16.2
2018-08-30T10:42:45.321Z,16.2
2018-08-30T10:43:45.297Z,16.3
2018-08-30T10:44:45.472Z,16.3
2018-08-30T10:45:45.368Z,16.3
2018-08-30T10:46:45.276Z,16.4
2018-08-30T10:47:46.107Z,16.4
2018-08-30T10:48:46.076Z,16.4
2018-08-30T10:49:46.893Z,16.5
2018-08-30T10:50:47.006Z,16.6
2018-08-30T10:51:46.921Z,16.6
2018-08-30T10:52:46.831Z,16.6
2018-08-30T10:53:46.738Z,16.6
2018-08-30T10:54:46.649Z,16.5
2018-08-30T10:55:46.579Z,16.6
2018-08-30T10:56:46.499Z,16.5
2018-08-30T10:57:46.855Z,16.4
2018-08-30T10:58:46.765Z,16.4
2018-08-30T10:59:46.679Z,16.5
2018-08-30T11:00:46.590Z,16.5
2018-08-30T11:01:46.777Z,16.5
2018-08-30T11:02:46.711Z,16.6
2018-08-30T11:03:46.750Z,16.6
2018-08-30T11:04:46.824Z,16.5
2018-08-30T11:05:46.767Z,16.5
2018-08-30T11:06:46.697Z,16.5
2018-08-30T11:07:47.325Z,16.6
2018-08-30T11:08:47.232Z,16.6
2018-08-30T11:09:47.240Z,16.5
2018-08-30T11:10:47.241Z,16.4
2018-08-30T11:11:47.169Z,16.3
2018-08-30T11:12:47.323Z,16.4
2018-08-30T11:13:47.574Z,16.3
2018-08-30T11:14:47.490Z,16.3
2018-08-30T11:15:47.414Z,16.2
2018-08-30T11:16:47.319Z,16.2
2018-08-30T11:17:47.698Z,16.2
2018-08-30T11:18:47.614Z,16.2
2018-08-30T11:19:47.522Z,16.3
2018-08-30T11:20:47.443Z,16.3
2018-08-30T11:21:47.349Z,16.3
2018-08-30T11:22:47.245Z,16.3
2018-08-30T11:23:47.207Z,16.4
2018-08-30T11:24:47.185Z,16.4
2018-08-30T11:25:47.168Z,16.4
2018-08-30T11:26:48.173Z,16.3
2018-08-30T11:27:48.805Z,16.3
2018-08-30T11:28:48.734Z,16.3
2018-08-30T11:29:48.649Z,16.3
2018-08-30T11:30:48.563Z,16.2
2018-08-30T11:31:48.490Z,16.2
2018-08-30T11:32:48.381Z,16.3
2018-08-30T11:33:48.305Z,16.3
2018-08-30T11:34:48.227Z,16.3
2018-08-30T11:35:48.148Z,16.3
2018-08-30T11:36:48.064Z,16.3
2018-08-30T11:37:48.410Z,16.3
2018-08-30T11:38:48.316Z,16.3
2018-08-30T11:39:48.215Z,16.2
2018-08-30T11:40:48.155Z,16.2
2018-08-30T11:41:48.393Z,16.1
2018-08-30T11:42:48.931Z,16.2
2018-08-30T11:43:48.848Z,16.2
2018-08-30T11:44:48.750Z,16.2
2018-08-30T11:45:48.658Z,16.2
2018-08-30T11:46:48.609Z,16.2
2018-08-30T11:47:48.948Z,16.2
2018-08-30T11:48:48.857Z,16.3
2018-08-30T11:49:48.780Z,16.4
2018-08-30T11:50:48.683Z,16.3
2018-08-30T11:51:48.611Z,16.4
2018-08-30T11:52:48.964Z,16.4
2018-08-30T11:53:49.195Z,16.4
2018-08-30T11:54:49.100Z,16.5
2018-08-30T11:55:49.007Z,16.4
2018-08-30T11:56:51.386Z,16.5
2018-08-30T11:57:51.735Z,16.5
2018-08-30T11:58:51.631Z,16.7
2018-08-30T11:59:51.634Z,16.6
2018-08-30T12:00:51.794Z,16.6
2018-08-30T12:01:52.210Z,16.5
2018-08-30T12:02:52.123Z,16.5
2018-08-30T12:03:52.128Z,16.5
2018-08-30T12:04:52.034Z,16.5
2018-08-30T12:05:51.936Z,16.5
2018-08-30T12:06:51.995Z,16.5
2018-08-30T12:07:52.963Z,16.5
2018-08-30T12:08:53.167Z,16.5
2018-08-30T12:09:53.085Z,16.5
2018-08-30T12:10:53.452Z,16.5
2018-08-30T12:11:54.054Z,16.5
2018-08-30T12:12:53.999Z,16.6
2018-08-30T12:13:54.366Z,16.7
2018-08-30T12:14:54.316Z,16.6
2018-08-30T12:15:54.451Z,16.5
2018-08-30T12:16:54.367Z,16.6
2018-08-30T12:17:54.741Z,16.6
2018-08-30T12:18:55.022Z,16.6
2018-08-30T12:19:55.499Z,16.7
2018-08-30T12:20:55.639Z,16.7
2018-08-30T12:21:55.994Z,16.7
2018-08-30T12:22:55.943Z,16.7
2018-08-30T12:23:55.845Z,16.7
2018-08-30T12:25:01.395Z,16.8
2018-08-30T12:26:02.311Z,16.9
2018-08-30T12:27:02.225Z,16.9
2018-08-30T12:28:05.363Z,17
2018-08-30T12:29:05.562Z,17
2018-08-30T12:30:05.918Z,17
2018-08-30T12:31:06.678Z,17
2018-08-30T12:32:06.841Z,17
2018-08-30T12:33:06.988Z,17.1
2018-08-30T12:34:07.288Z,17.1
2018-08-30T12:35:08.071Z,17.1
2018-08-30T12:36:09.096Z,17.1
2018-08-30T12:37:13.329Z,17
2018-08-30T12:38:17.025Z,17
2018-08-30T12:39:17.571Z,17.1
2018-08-30T12:40:18.336Z,17
2018-08-30T12:41:19.141Z,17
2018-08-30T12:42:20.045Z,17
2018-08-30T12:43:20.815Z,16.9
2018-08-30T12:44:21.569Z,16.9
2018-08-30T12:45:22.159Z,16.9
2018-08-30T12:46:22.916Z,17
2018-08-30T12:47:23.341Z,17
2018-08-30T12:48:24.413Z,17
2018-08-30T12:49:24.477Z,17.1
2018-08-30T12:50:27.722Z,17.2
2018-08-30T12:51:30.141Z,17.2
2018-08-30T12:52:32.322Z,17.1
2018-08-30T12:53:33.674Z,17
2018-08-30T12:54:34.313Z,17
2018-08-30T12:55:36.892Z,16.9
2018-08-30T12:56:37.551Z,17
2018-08-30T12:57:41.497Z,17
2018-08-30T12:58:45.670Z,17
2018-08-30T12:59:47.165Z,17
2018-08-30T13:00:48.676Z,16.9
2018-08-30T13:01:50.726Z,16.9
2018-08-30T13:02:53.104Z,16.9
2018-08-30T13:03:57.821Z,16.7
2018-08-30T13:05:00.059Z,16.8
2018-08-30T13:06:02.949Z,16.9
2018-08-30T13:07:06.541Z,16.9
2018-08-30T13:08:08.797Z,17
2018-08-30T13:09:15.063Z,17
2018-08-30T13:10:18.641Z,17.1
2018-08-30T13:11:21.659Z,17
2018-08-30T13:12:24.991Z,17
2018-08-30T13:13:27.998Z,17
2018-08-30T13:14:34.834Z,16.9
2018-08-30T13:15:37.791Z,16.8
2018-08-30T13:16:40.373Z,16.8
2018-08-30T13:17:42.593Z,16.8
2018-08-30T13:18:44.053Z,16.7
2018-08-30T13:19:50.560Z,16.6
2018-08-30T13:20:54.533Z,16.6
2018-08-30T13:21:57.983Z,16.5
2018-08-30T13:23:01.279Z,16.6
2018-08-30T13:24:04.384Z,16.6
2018-08-30T13:25:08.324Z,16.5
2018-08-30T13:26:11.566Z,16.4
2018-08-30T13:27:14.459Z,16.4